sensor_id;sensor_type;location;lat;lon;timestamp;P1;durP1;ratioP1;P2;durP2;ratioP2
10174;SDS011;18221;38.704;0.152;2022-10-26T00:12:41;16.93;;;11.57;;
10174;SDS011;18221;38.704;0.152;2022-10-26T00:15:11;18.43;;;10.80;;
10174;SDS011;18221;38.704;0.152;2022-10-26T00:17:39;19.80;;;12.17;;
10174;SDS011;18221;38.704;0.152;2022-10-26T00:20:07;23.53;;;13.73;;
10174;SDS011;18221;38.704;0.152;2022-10-26T00:22:35;22.13;;;12.57;;
10174;SDS011;18221;38.704;0.152;2022-10-26T00:25:04;19.73;;;12.50;;
10174;SDS011;18221;38.704;0.152;2022-10-26T00:27:32;20.90;;;12.50;;
10174;SDS011;18221;38.704;0.152;2022-10-26T00:30:01;18.37;;;12.57;;
10174;SDS011;18221;38.704;0.152;2022-10-26T00:32:32;20.63;;;13.13;;
10174;SDS011;18221;38.704;0.152;2022-10-26T00:35:00;19.00;;;12.07;;
10174;SDS011;18221;38.704;0.152;2022-10-26T00:37:28;23.70;;;10.57;;
10174;SDS011;18221;38.704;0.152;2022-10-26T00:39:57;16.90;;;12.07;;
10174;SDS011;18221;38.704;0.152;2022-10-26T00:42:24;24.90;;;12.73;;
10174;SDS011;18221;38.704;0.152;2022-10-26T00:44:56;28.90;;;14.00;;
10174;SDS011;18221;38.704;0.152;2022-10-26T00:47:29;16.83;;;11.40;;
10174;SDS011;18221;38.704;0.152;2022-10-26T00:50:07;17.53;;;10.77;;
10174;SDS011;18221;38.704;0.152;2022-10-26T00:52:42;17.57;;;10.40;;
10174;SDS011;18221;38.704;0.152;2022-10-26T00:55:10;16.70;;;9.83;;
10174;SDS011;18221;38.704;0.152;2022-10-26T00:57:38;16.43;;;9.87;;
10174;SDS011;18221;38.704;0.152;2022-10-26T01:00:07;20.83;;;11.00;;
10174;SDS011;18221;38.704;0.152;2022-10-26T01:02:37;17.03;;;10.30;;
10174;SDS011;18221;38.704;0.152;2022-10-26T01:05:05;13.57;;;8.83;;
10174;SDS011;18221;38.704;0.152;2022-10-26T01:07:35;16.10;;;8.93;;
10174;SDS011;18221;38.704;0.152;2022-10-26T01:10:04;17.73;;;9.10;;
10174;SDS011;18221;38.704;0.152;2022-10-26T01:12:34;20.17;;;9.93;;
10174;SDS011;18221;38.704;0.152;2022-10-26T01:15:03;18.03;;;9.10;;
10174;SDS011;18221;38.704;0.152;2022-10-26T01:17:35;17.53;;;8.90;;
10174;SDS011;18221;38.704;0.152;2022-10-26T01:23:36;19.50;;;9.53;;
10174;SDS011;18221;38.704;0.152;2022-10-26T01:33:04;19.27;;;8.47;;
10174;SDS011;18221;38.704;0.152;2022-10-26T01:35:59;14.50;;;8.37;;
10174;SDS011;18221;38.704;0.152;2022-10-26T01:38:39;20.70;;;9.03;;
10174;SDS011;18221;38.704;0.152;2022-10-26T01:41:20;17.53;;;7.53;;
10174;SDS011;18221;38.704;0.152;2022-10-26T01:43:55;17.67;;;6.67;;
10174;SDS011;18221;38.704;0.152;2022-10-26T01:46:32;12.10;;;6.87;;
10174;SDS011;18221;38.704;0.152;2022-10-26T01:49:08;13.60;;;6.30;;
10174;SDS011;18221;38.704;0.152;2022-10-26T01:51:42;14.97;;;5.93;;
10174;SDS011;18221;38.704;0.152;2022-10-26T01:54:13;14.20;;;4.93;;
10174;SDS011;18221;38.704;0.152;2022-10-26T01:56:42;16.33;;;4.90;;
10174;SDS011;18221;38.704;0.152;2022-10-26T01:59:18;16.67;;;5.27;;
10174;SDS011;18221;38.704;0.152;2022-10-26T02:02:13;9.43;;;4.33;;
10174;SDS011;18221;38.704;0.152;2022-10-26T02:08:18;10.23;;;4.17;;
10174;SDS011;18221;38.704;0.152;2022-10-26T02:11:23;12.80;;;4.33;;
10174;SDS011;18221;38.704;0.152;2022-10-26T02:14:07;15.03;;;4.13;;
10174;SDS011;18221;38.704;0.152;2022-10-26T02:16:48;12.77;;;3.93;;
10174;SDS011;18221;38.704;0.152;2022-10-26T02:19:26;11.83;;;3.87;;
10174;SDS011;18221;38.704;0.152;2022-10-26T02:22:04;10.30;;;3.60;;
10174;SDS011;18221;38.704;0.152;2022-10-26T02:24:41;15.87;;;4.03;;
10174;SDS011;18221;38.704;0.152;2022-10-26T02:27:12;16.97;;;4.37;;
10174;SDS011;18221;38.704;0.152;2022-10-26T02:29:45;15.40;;;4.27;;
10174;SDS011;18221;38.704;0.152;2022-10-26T02:32:18;12.33;;;3.90;;
10174;SDS011;18221;38.704;0.152;2022-10-26T02:34:51;17.70;;;4.70;;
10174;SDS011;18221;38.704;0.152;2022-10-26T02:37:23;20.13;;;4.63;;
10174;SDS011;18221;38.704;0.152;2022-10-26T02:39:56;15.13;;;4.63;;
10174;SDS011;18221;38.704;0.152;2022-10-26T02:42:28;19.90;;;4.27;;
10174;SDS011;18221;38.704;0.152;2022-10-26T02:44:59;16.50;;;4.50;;
10174;SDS011;18221;38.704;0.152;2022-10-26T02:47:33;20.43;;;4.80;;
10174;SDS011;18221;38.704;0.152;2022-10-26T02:50:05;19.30;;;3.80;;
10174;SDS011;18221;38.704;0.152;2022-10-26T02:52:35;15.40;;;4.27;;
10174;SDS011;18221;38.704;0.152;2022-10-26T02:55:17;13.43;;;3.67;;
10174;SDS011;18221;38.704;0.152;2022-10-26T02:57:52;16.33;;;4.17;;
10174;SDS011;18221;38.704;0.152;2022-10-26T03:00:25;14.03;;;3.97;;
10174;SDS011;18221;38.704;0.152;2022-10-26T03:02:57;24.30;;;5.13;;
10174;SDS011;18221;38.704;0.152;2022-10-26T03:05:29;18.90;;;4.60;;
10174;SDS011;18221;38.704;0.152;2022-10-26T03:08:01;21.50;;;4.80;;
10174;SDS011;18221;38.704;0.152;2022-10-26T03:10:29;19.93;;;4.30;;
10174;SDS011;18221;38.704;0.152;2022-10-26T03:13:03;14.30;;;4.50;;
10174;SDS011;18221;38.704;0.152;2022-10-26T03:15:32;22.47;;;4.60;;
10174;SDS011;18221;38.704;0.152;2022-10-26T03:18:02;17.90;;;4.73;;
10174;SDS011;18221;38.704;0.152;2022-10-26T03:20:34;18.10;;;4.00;;
10174;SDS011;18221;38.704;0.152;2022-10-26T03:23:03;24.67;;;4.90;;
10174;SDS011;18221;38.704;0.152;2022-10-26T03:25:32;20.00;;;4.50;;
10174;SDS011;18221;38.704;0.152;2022-10-26T03:28:02;17.37;;;4.30;;
10174;SDS011;18221;38.704;0.152;2022-10-26T03:30:32;23.33;;;4.70;;
10174;SDS011;18221;38.704;0.152;2022-10-26T03:33:00;20.20;;;4.30;;
10174;SDS011;18221;38.704;0.152;2022-10-26T03:35:28;20.93;;;4.50;;
10174;SDS011;18221;38.704;0.152;2022-10-26T03:37:58;20.67;;;4.57;;
10174;SDS011;18221;38.704;0.152;2022-10-26T03:40:26;18.63;;;4.77;;
10174;SDS011;18221;38.704;0.152;2022-10-26T03:42:54;17.23;;;4.40;;
10174;SDS011;18221;38.704;0.152;2022-10-26T03:45:22;12.07;;;4.47;;
10174;SDS011;18221;38.704;0.152;2022-10-26T03:47:51;13.50;;;3.73;;
10174;SDS011;18221;38.704;0.152;2022-10-26T03:50:19;17.67;;;3.97;;
10174;SDS011;18221;38.704;0.152;2022-10-26T03:52:48;16.63;;;3.90;;
10174;SDS011;18221;38.704;0.152;2022-10-26T03:55:18;22.30;;;4.37;;
10174;SDS011;18221;38.704;0.152;2022-10-26T03:57:45;16.73;;;4.10;;
10174;SDS011;18221;38.704;0.152;2022-10-26T04:00:14;14.20;;;3.70;;
10174;SDS011;18221;38.704;0.152;2022-10-26T04:02:44;15.90;;;3.87;;
10174;SDS011;18221;38.704;0.152;2022-10-26T04:05:20;15.47;;;3.73;;
10174;SDS011;18221;38.704;0.152;2022-10-26T04:07:51;17.63;;;3.93;;
10174;SDS011;18221;38.704;0.152;2022-10-26T04:10:21;20.00;;;4.43;;
10174;SDS011;18221;38.704;0.152;2022-10-26T04:12:50;13.37;;;3.40;;
10174;SDS011;18221;38.704;0.152;2022-10-26T04:15:18;13.97;;;4.00;;
10174;SDS011;18221;38.704;0.152;2022-10-26T04:17:47;17.23;;;4.40;;
10174;SDS011;18221;38.704;0.152;2022-10-26T04:20:21;14.37;;;3.90;;
10174;SDS011;18221;38.704;0.152;2022-10-26T04:22:55;15.80;;;3.67;;
10174;SDS011;18221;38.704;0.152;2022-10-26T04:25:26;17.80;;;3.97;;
10174;SDS011;18221;38.704;0.152;2022-10-26T04:27:55;16.57;;;4.00;;
10174;SDS011;18221;38.704;0.152;2022-10-26T04:30:23;17.77;;;3.87;;
10174;SDS011;18221;38.704;0.152;2022-10-26T04:32:51;20.23;;;4.17;;
10174;SDS011;18221;38.704;0.152;2022-10-26T04:35:19;14.67;;;4.20;;
10174;SDS011;18221;38.704;0.152;2022-10-26T04:37:47;13.93;;;3.80;;
10174;SDS011;18221;38.704;0.152;2022-10-26T04:40:16;13.93;;;3.93;;
10174;SDS011;18221;38.704;0.152;2022-10-26T04:42:46;17.00;;;4.03;;
10174;SDS011;18221;38.704;0.152;2022-10-26T04:45:15;13.07;;;3.80;;
10174;SDS011;18221;38.704;0.152;2022-10-26T04:47:45;17.17;;;4.17;;
10174;SDS011;18221;38.704;0.152;2022-10-26T04:50:14;20.37;;;3.87;;
10174;SDS011;18221;38.704;0.152;2022-10-26T04:52:44;17.87;;;3.70;;
10174;SDS011;18221;38.704;0.152;2022-10-26T04:55:17;18.17;;;4.00;;
10174;SDS011;18221;38.704;0.152;2022-10-26T04:57:50;16.53;;;3.10;;
10174;SDS011;18221;38.704;0.152;2022-10-26T05:00:19;21.37;;;3.30;;
10174;SDS011;18221;38.704;0.152;2022-10-26T05:02:47;9.80;;;3.23;;
10174;SDS011;18221;38.704;0.152;2022-10-26T05:05:16;11.17;;;3.37;;
10174;SDS011;18221;38.704;0.152;2022-10-26T05:07:52;9.27;;;3.40;;
10174;SDS011;18221;38.704;0.152;2022-10-26T05:10:21;11.33;;;3.43;;
10174;SDS011;18221;38.704;0.152;2022-10-26T05:12:52;12.37;;;3.47;;
10174;SDS011;18221;38.704;0.152;2022-10-26T05:15:22;12.63;;;3.37;;
10174;SDS011;18221;38.704;0.152;2022-10-26T05:17:54;11.27;;;3.57;;
10174;SDS011;18221;38.704;0.152;2022-10-26T05:20:24;17.43;;;4.03;;
10174;SDS011;18221;38.704;0.152;2022-10-26T05:22:55;13.93;;;3.80;;
10174;SDS011;18221;38.704;0.152;2022-10-26T05:25:24;11.60;;;3.50;;
10174;SDS011;18221;38.704;0.152;2022-10-26T05:27:57;12.33;;;3.37;;
10174;SDS011;18221;38.704;0.152;2022-10-26T05:30:26;14.83;;;3.93;;
10174;SDS011;18221;38.704;0.152;2022-10-26T05:32:55;14.40;;;3.77;;
10174;SDS011;18221;38.704;0.152;2022-10-26T05:35:27;20.80;;;4.30;;
10174;SDS011;18221;38.704;0.152;2022-10-26T05:37:57;14.03;;;3.90;;
10174;SDS011;18221;38.704;0.152;2022-10-26T05:40:26;15.27;;;3.93;;
10174;SDS011;18221;38.704;0.152;2022-10-26T05:42:59;17.07;;;4.53;;
10174;SDS011;18221;38.704;0.152;2022-10-26T05:45:28;17.13;;;3.73;;
10174;SDS011;18221;38.704;0.152;2022-10-26T05:47:56;17.63;;;3.93;;
10174;SDS011;18221;38.704;0.152;2022-10-26T05:50:24;14.23;;;3.17;;
10174;SDS011;18221;38.704;0.152;2022-10-26T05:52:51;9.73;;;3.30;;
10174;SDS011;18221;38.704;0.152;2022-10-26T05:55:20;11.63;;;3.63;;
10174;SDS011;18221;38.704;0.152;2022-10-26T05:57:49;13.77;;;3.80;;
10174;SDS011;18221;38.704;0.152;2022-10-26T06:00:20;12.63;;;3.40;;
10174;SDS011;18221;38.704;0.152;2022-10-26T06:02:53;14.50;;;3.27;;
10174;SDS011;18221;38.704;0.152;2022-10-26T06:05:40;12.60;;;3.33;;
10174;SDS011;18221;38.704;0.152;2022-10-26T06:08:18;17.47;;;3.17;;
10174;SDS011;18221;38.704;0.152;2022-10-26T06:10:49;13.10;;;3.60;;
10174;SDS011;18221;38.704;0.152;2022-10-26T06:13:19;9.40;;;3.00;;
10174;SDS011;18221;38.704;0.152;2022-10-26T06:15:54;7.67;;;3.00;;
10174;SDS011;18221;38.704;0.152;2022-10-26T06:18:42;11.23;;;3.30;;
10174;SDS011;18221;38.704;0.152;2022-10-26T06:21:23;12.30;;;2.97;;
10174;SDS011;18221;38.704;0.152;2022-10-26T06:24:14;14.90;;;3.27;;
10174;SDS011;18221;38.704;0.152;2022-10-26T06:26:54;13.63;;;2.93;;
10174;SDS011;18221;38.704;0.152;2022-10-26T06:29:36;11.43;;;2.90;;
10174;SDS011;18221;38.704;0.152;2022-10-26T06:32:20;19.17;;;3.43;;
10174;SDS011;18221;38.704;0.152;2022-10-26T06:34:50;14.93;;;3.20;;
10174;SDS011;18221;38.704;0.152;2022-10-26T06:37:31;12.23;;;3.97;;
10174;SDS011;18221;38.704;0.152;2022-10-26T06:40:02;12.53;;;3.17;;
10174;SDS011;18221;38.704;0.152;2022-10-26T06:42:33;16.43;;;3.57;;
10174;SDS011;18221;38.704;0.152;2022-10-26T06:45:02;12.60;;;3.23;;
10174;SDS011;18221;38.704;0.152;2022-10-26T06:47:35;10.90;;;3.40;;
10174;SDS011;18221;38.704;0.152;2022-10-26T06:50:12;15.97;;;3.67;;
10174;SDS011;18221;38.704;0.152;2022-10-26T06:53:00;15.43;;;4.00;;
10174;SDS011;18221;38.704;0.152;2022-10-26T06:55:43;23.50;;;4.60;;
10174;SDS011;18221;38.704;0.152;2022-10-26T06:58:16;24.50;;;5.50;;
10174;SDS011;18221;38.704;0.152;2022-10-26T07:00:48;26.97;;;4.70;;
10174;SDS011;18221;38.704;0.152;2022-10-26T07:03:21;24.40;;;4.80;;
10174;SDS011;18221;38.704;0.152;2022-10-26T07:05:49;27.87;;;5.20;;
10174;SDS011;18221;38.704;0.152;2022-10-26T07:08:18;26.93;;;5.57;;
10174;SDS011;18221;38.704;0.152;2022-10-26T07:10:47;23.33;;;5.43;;
10174;SDS011;18221;38.704;0.152;2022-10-26T07:13:16;28.60;;;4.30;;
10174;SDS011;18221;38.704;0.152;2022-10-26T07:15:46;19.07;;;4.30;;
10174;SDS011;18221;38.704;0.152;2022-10-26T07:18:14;18.47;;;3.90;;
10174;SDS011;18221;38.704;0.152;2022-10-26T07:20:44;25.63;;;5.63;;
10174;SDS011;18221;38.704;0.152;2022-10-26T07:23:12;22.33;;;4.93;;
10174;SDS011;18221;38.704;0.152;2022-10-26T07:25:41;18.37;;;4.60;;
10174;SDS011;18221;38.704;0.152;2022-10-26T07:28:11;21.33;;;4.50;;
10174;SDS011;18221;38.704;0.152;2022-10-26T07:30:40;20.57;;;4.90;;
10174;SDS011;18221;38.704;0.152;2022-10-26T07:33:09;17.43;;;4.67;;
10174;SDS011;18221;38.704;0.152;2022-10-26T07:35:39;26.60;;;6.03;;
10174;SDS011;18221;38.704;0.152;2022-10-26T07:38:09;34.93;;;7.23;;
10174;SDS011;18221;38.704;0.152;2022-10-26T07:40:40;31.17;;;6.17;;
10174;SDS011;18221;38.704;0.152;2022-10-26T07:43:08;29.57;;;6.33;;
10174;SDS011;18221;38.704;0.152;2022-10-26T07:45:36;24.83;;;5.00;;
10174;SDS011;18221;38.704;0.152;2022-10-26T07:48:05;22.20;;;5.37;;
10174;SDS011;18221;38.704;0.152;2022-10-26T07:50:33;27.37;;;5.30;;
10174;SDS011;18221;38.704;0.152;2022-10-26T07:53:01;15.30;;;4.37;;
10174;SDS011;18221;38.704;0.152;2022-10-26T07:55:32;19.23;;;4.67;;
10174;SDS011;18221;38.704;0.152;2022-10-26T07:58:01;22.07;;;4.70;;
10174;SDS011;18221;38.704;0.152;2022-10-26T08:00:30;17.93;;;4.73;;
10174;SDS011;18221;38.704;0.152;2022-10-26T08:02:59;17.33;;;4.40;;
10174;SDS011;18221;38.704;0.152;2022-10-26T08:05:29;17.97;;;4.47;;
10174;SDS011;18221;38.704;0.152;2022-10-26T08:07:58;17.60;;;4.20;;
10174;SDS011;18221;38.704;0.152;2022-10-26T08:10:26;24.73;;;4.57;;
10174;SDS011;18221;38.704;0.152;2022-10-26T08:12:57;13.90;;;3.77;;
10174;SDS011;18221;38.704;0.152;2022-10-26T08:15:26;18.77;;;4.23;;
10174;SDS011;18221;38.704;0.152;2022-10-26T08:17:54;23.20;;;4.80;;
10174;SDS011;18221;38.704;0.152;2022-10-26T08:20:23;20.17;;;4.97;;
10174;SDS011;18221;38.704;0.152;2022-10-26T08:22:54;22.60;;;4.27;;
10174;SDS011;18221;38.704;0.152;2022-10-26T08:25:24;17.27;;;4.73;;
10174;SDS011;18221;38.704;0.152;2022-10-26T08:27:54;24.30;;;5.17;;
10174;SDS011;18221;38.704;0.152;2022-10-26T08:30:27;21.37;;;4.50;;
10174;SDS011;18221;38.704;0.152;2022-10-26T08:32:59;18.57;;;4.37;;
10174;SDS011;18221;38.704;0.152;2022-10-26T08:35:29;16.33;;;5.13;;
10174;SDS011;18221;38.704;0.152;2022-10-26T08:37:58;17.40;;;4.73;;
10174;SDS011;18221;38.704;0.152;2022-10-26T08:40:27;21.97;;;4.80;;
10174;SDS011;18221;38.704;0.152;2022-10-26T08:43:00;17.23;;;3.70;;
10174;SDS011;18221;38.704;0.152;2022-10-26T08:45:38;14.37;;;3.33;;
10174;SDS011;18221;38.704;0.152;2022-10-26T08:48:12;14.77;;;3.97;;
10174;SDS011;18221;38.704;0.152;2022-10-26T08:50:49;13.33;;;4.37;;
10174;SDS011;18221;38.704;0.152;2022-10-26T08:53:21;16.40;;;5.07;;
10174;SDS011;18221;38.704;0.152;2022-10-26T08:56:00;26.63;;;4.50;;
10174;SDS011;18221;38.704;0.152;2022-10-26T08:58:39;22.83;;;4.17;;
10174;SDS011;18221;38.704;0.152;2022-10-26T09:01:15;15.83;;;3.97;;
10174;SDS011;18221;38.704;0.152;2022-10-26T09:03:44;18.60;;;4.10;;
10174;SDS011;18221;38.704;0.152;2022-10-26T09:06:15;27.63;;;4.70;;
10174;SDS011;18221;38.704;0.152;2022-10-26T09:08:56;19.10;;;4.30;;
10174;SDS011;18221;38.704;0.152;2022-10-26T09:11:39;20.60;;;4.57;;
10174;SDS011;18221;38.704;0.152;2022-10-26T09:14:31;14.53;;;3.70;;
10174;SDS011;18221;38.704;0.152;2022-10-26T09:17:11;18.47;;;4.10;;
10174;SDS011;18221;38.704;0.152;2022-10-26T09:19:56;12.77;;;3.53;;
10174;SDS011;18221;38.704;0.152;2022-10-26T09:22:44;14.97;;;3.50;;
10174;SDS011;18221;38.704;0.152;2022-10-26T09:25:23;10.37;;;3.30;;
10174;SDS011;18221;38.704;0.152;2022-10-26T09:27:59;19.23;;;5.23;;
10174;SDS011;18221;38.704;0.152;2022-10-26T09:30:30;15.07;;;4.57;;
10174;SDS011;18221;38.704;0.152;2022-10-26T09:33:01;15.33;;;4.53;;
10174;SDS011;18221;38.704;0.152;2022-10-26T09:35:40;10.90;;;4.07;;
10174;SDS011;18221;38.704;0.152;2022-10-26T09:38:16;16.23;;;5.53;;
10174;SDS011;18221;38.704;0.152;2022-10-26T09:40:55;11.63;;;4.43;;
10174;SDS011;18221;38.704;0.152;2022-10-26T09:43:31;16.47;;;4.93;;
10174;SDS011;18221;38.704;0.152;2022-10-26T09:46:14;13.57;;;4.90;;
10174;SDS011;18221;38.704;0.152;2022-10-26T09:48:49;12.47;;;4.53;;
10174;SDS011;18221;38.704;0.152;2022-10-26T09:51:21;10.93;;;4.37;;
10174;SDS011;18221;38.704;0.152;2022-10-26T09:53:51;12.90;;;4.60;;
10174;SDS011;18221;38.704;0.152;2022-10-26T09:56:23;19.60;;;5.33;;
10174;SDS011;18221;38.704;0.152;2022-10-26T09:58:53;12.97;;;4.27;;
10174;SDS011;18221;38.704;0.152;2022-10-26T10:01:30;12.23;;;4.43;;
10174;SDS011;18221;38.704;0.152;2022-10-26T10:07:10;16.83;;;4.30;;
10174;SDS011;18221;38.704;0.152;2022-10-26T10:09:39;15.20;;;4.00;;
10174;SDS011;18221;38.704;0.152;2022-10-26T10:12:16;16.47;;;4.10;;
10174;SDS011;18221;38.704;0.152;2022-10-26T10:14:55;16.85;;;3.90;;
10174;SDS011;18221;38.704;0.152;2022-10-26T10:17:26;14.43;;;4.43;;
10174;SDS011;18221;38.704;0.152;2022-10-26T10:19:54;29.20;;;5.20;;
10174;SDS011;18221;38.704;0.152;2022-10-26T10:22:50;13.20;;;4.43;;
10174;SDS011;18221;38.704;0.152;2022-10-26T10:25:33;15.77;;;5.18;;
10174;SDS011;18221;38.704;0.152;2022-10-26T10:28:18;16.88;;;5.47;;
10174;SDS011;18221;38.704;0.152;2022-10-26T10:30:51;12.65;;;4.60;;
10174;SDS011;18221;38.704;0.152;2022-10-26T10:33:23;19.42;;;6.90;;
10174;SDS011;18221;38.704;0.152;2022-10-26T10:36:05;18.65;;;7.18;;
10174;SDS011;18221;38.704;0.152;2022-10-26T10:38:39;21.15;;;6.50;;
10174;SDS011;18221;38.704;0.152;2022-10-26T10:41:14;22.60;;;6.82;;
10174;SDS011;18221;38.704;0.152;2022-10-26T10:43:51;17.83;;;6.70;;
10174;SDS011;18221;38.704;0.152;2022-10-26T10:46:26;18.98;;;7.68;;
10174;SDS011;18221;38.704;0.152;2022-10-26T10:49:01;17.38;;;8.75;;
10174;SDS011;18221;38.704;0.152;2022-10-26T10:51:34;30.77;;;11.38;;
10174;SDS011;18221;38.704;0.152;2022-10-26T10:54:05;20.92;;;10.02;;
10174;SDS011;18221;38.704;0.152;2022-10-26T10:56:50;21.77;;;8.63;;
10174;SDS011;18221;38.704;0.152;2022-10-26T11:05:34;21.45;;;7.47;;
10174;SDS011;18221;38.704;0.152;2022-10-26T11:08:19;14.55;;;6.70;;
10174;SDS011;18221;38.704;0.152;2022-10-26T11:10:58;12.93;;;6.22;;
10174;SDS011;18221;38.704;0.152;2022-10-26T11:13:32;20.52;;;6.53;;
10174;SDS011;18221;38.704;0.152;2022-10-26T11:16:06;16.55;;;7.28;;
10174;SDS011;18221;38.704;0.152;2022-10-26T11:18:42;21.10;;;7.55;;
10174;SDS011;18221;38.704;0.152;2022-10-26T11:21:22;17.25;;;7.18;;
10174;SDS011;18221;38.704;0.152;2022-10-26T11:23:56;14.00;;;6.45;;
10174;SDS011;18221;38.704;0.152;2022-10-26T11:26:41;16.95;;;6.72;;
10174;SDS011;18221;38.704;0.152;2022-10-26T11:29:26;21.13;;;7.47;;
10174;SDS011;18221;38.704;0.152;2022-10-26T11:32:06;15.50;;;6.60;;
10174;SDS011;18221;38.704;0.152;2022-10-26T11:34:45;17.88;;;7.15;;
10174;SDS011;18221;38.704;0.152;2022-10-26T11:37:26;14.18;;;7.07;;
10174;SDS011;18221;38.704;0.152;2022-10-26T11:40:04;14.68;;;6.50;;
10174;SDS011;18221;38.704;0.152;2022-10-26T11:42:50;21.83;;;7.32;;
10174;SDS011;18221;38.704;0.152;2022-10-26T11:45:31;20.83;;;6.63;;
10174;SDS011;18221;38.704;0.152;2022-10-26T11:48:11;17.30;;;7.68;;
10174;SDS011;18221;38.704;0.152;2022-10-26T11:50:49;17.90;;;7.40;;
10174;SDS011;18221;38.704;0.152;2022-10-26T11:53:25;19.05;;;7.72;;
10174;SDS011;18221;38.704;0.152;2022-10-26T11:56:01;15.60;;;7.72;;
10174;SDS011;18221;38.704;0.152;2022-10-26T11:58:38;15.40;;;6.47;;
10174;SDS011;18221;38.704;0.152;2022-10-26T12:01:08;20.75;;;7.50;;
10174;SDS011;18221;38.704;0.152;2022-10-26T12:03:42;21.00;;;7.35;;
10174;SDS011;18221;38.704;0.152;2022-10-26T12:06:17;19.15;;;8.20;;
10174;SDS011;18221;38.704;0.152;2022-10-26T12:08:54;19.88;;;7.90;;
10174;SDS011;18221;38.704;0.152;2022-10-26T12:11:33;13.85;;;7.35;;
10174;SDS011;18221;38.704;0.152;2022-10-26T12:14:12;18.23;;;7.28;;
10174;SDS011;18221;38.704;0.152;2022-10-26T12:16:55;15.05;;;6.55;;
10174;SDS011;18221;38.704;0.152;2022-10-26T12:19:32;17.40;;;7.47;;
10174;SDS011;18221;38.704;0.152;2022-10-26T12:22:10;22.88;;;7.78;;
10174;SDS011;18221;38.704;0.152;2022-10-26T12:24:44;17.92;;;6.38;;
10174;SDS011;18221;38.704;0.152;2022-10-26T12:27:31;19.40;;;8.88;;
10174;SDS011;18221;38.704;0.152;2022-10-26T12:30:25;16.08;;;7.65;;
10174;SDS011;18221;38.704;0.152;2022-10-26T12:32:58;16.02;;;6.65;;
10174;SDS011;18221;38.704;0.152;2022-10-26T12:35:41;19.52;;;7.70;;
10174;SDS011;18221;38.704;0.152;2022-10-26T12:41:26;14.25;;;7.85;;
10174;SDS011;18221;38.704;0.152;2022-10-26T12:43:55;15.07;;;7.97;;
10174;SDS011;18221;38.704;0.152;2022-10-26T12:46:36;20.95;;;7.63;;
10174;SDS011;18221;38.704;0.152;2022-10-26T12:52:48;17.38;;;8.50;;
10174;SDS011;18221;38.704;0.152;2022-10-26T13:02:00;17.77;;;8.85;;
10174;SDS011;18221;38.704;0.152;2022-10-26T13:05:03;10.98;;;6.75;;
10174;SDS011;18221;38.704;0.152;2022-10-26T13:08:07;15.95;;;6.68;;
10174;SDS011;18221;38.704;0.152;2022-10-26T13:10:40;15.35;;;6.32;;
10174;SDS011;18221;38.704;0.152;2022-10-26T13:13:28;12.27;;;6.30;;
10174;SDS011;18221;38.704;0.152;2022-10-26T13:16:01;14.90;;;6.55;;
10174;SDS011;18221;38.704;0.152;2022-10-26T13:18:31;17.60;;;7.07;;
10174;SDS011;18221;38.704;0.152;2022-10-26T13:21:13;13.50;;;6.10;;
10174;SDS011;18221;38.704;0.152;2022-10-26T13:23:44;15.15;;;5.88;;
10174;SDS011;18221;38.704;0.152;2022-10-26T13:26:23;16.13;;;6.22;;
10174;SDS011;18221;38.704;0.152;2022-10-26T13:28:54;14.30;;;5.90;;
10174;SDS011;18221;38.704;0.152;2022-10-26T13:34:26;10.13;;;5.85;;
10174;SDS011;18221;38.704;0.152;2022-10-26T13:37:03;10.32;;;5.40;;
10174;SDS011;18221;38.704;0.152;2022-10-26T13:39:45;9.48;;;5.38;;
10174;SDS011;18221;38.704;0.152;2022-10-26T13:42:20;13.02;;;6.43;;
10174;SDS011;18221;38.704;0.152;2022-10-26T13:44:53;12.43;;;6.55;;
10174;SDS011;18221;38.704;0.152;2022-10-26T13:47:35;20.35;;;7.13;;
10174;SDS011;18221;38.704;0.152;2022-10-26T13:50:10;14.35;;;6.70;;
10174;SDS011;18221;38.704;0.152;2022-10-26T13:52:43;16.10;;;7.07;;
10174;SDS011;18221;38.704;0.152;2022-10-26T13:55:17;14.15;;;6.60;;
10174;SDS011;18221;38.704;0.152;2022-10-26T13:57:56;20.80;;;7.25;;
10174;SDS011;18221;38.704;0.152;2022-10-26T14:00:52;16.98;;;7.45;;
10174;SDS011;18221;38.704;0.152;2022-10-26T14:03:38;11.85;;;6.00;;
10174;SDS011;18221;38.704;0.152;2022-10-26T14:06:11;18.33;;;8.43;;
10174;SDS011;18221;38.704;0.152;2022-10-26T14:08:45;22.90;;;8.20;;
10174;SDS011;18221;38.704;0.152;2022-10-26T14:11:18;21.55;;;8.60;;
10174;SDS011;18221;38.704;0.152;2022-10-26T14:13:53;17.55;;;7.57;;
10174;SDS011;18221;38.704;0.152;2022-10-26T14:16:21;11.90;;;7.05;;
10174;SDS011;18221;38.704;0.152;2022-10-26T14:18:56;23.30;;;9.13;;
10174;SDS011;18221;38.704;0.152;2022-10-26T14:21:25;23.35;;;8.85;;
10174;SDS011;18221;38.704;0.152;2022-10-26T14:23:55;21.73;;;8.98;;
10174;SDS011;18221;38.704;0.152;2022-10-26T14:26:28;16.60;;;7.32;;
10174;SDS011;18221;38.704;0.152;2022-10-26T14:29:12;11.63;;;6.45;;
10174;SDS011;18221;38.704;0.152;2022-10-26T14:31:44;19.70;;;8.05;;
10174;SDS011;18221;38.704;0.152;2022-10-26T14:34:16;14.25;;;7.50;;
10174;SDS011;18221;38.704;0.152;2022-10-26T14:36:47;21.20;;;6.88;;
10174;SDS011;18221;38.704;0.152;2022-10-26T14:39:21;16.75;;;6.50;;
10174;SDS011;18221;38.704;0.152;2022-10-26T14:42:00;24.30;;;8.73;;
10174;SDS011;18221;38.704;0.152;2022-10-26T14:44:38;12.13;;;6.75;;
10174;SDS011;18221;38.704;0.152;2022-10-26T14:47:11;18.13;;;7.80;;
10174;SDS011;18221;38.704;0.152;2022-10-26T14:49:53;20.90;;;7.70;;
10174;SDS011;18221;38.704;0.152;2022-10-26T14:52:24;17.17;;;7.55;;
10174;SDS011;18221;38.704;0.152;2022-10-26T14:54:57;14.98;;;6.28;;
10174;SDS011;18221;38.704;0.152;2022-10-26T14:57:32;18.23;;;7.60;;
10174;SDS011;18221;38.704;0.152;2022-10-26T15:00:09;19.30;;;6.82;;
10174;SDS011;18221;38.704;0.152;2022-10-26T15:02:42;12.88;;;6.93;;
10174;SDS011;18221;38.704;0.152;2022-10-26T15:05:18;19.40;;;6.72;;
10174;SDS011;18221;38.704;0.152;2022-10-26T15:07:54;11.70;;;5.78;;
10174;SDS011;18221;38.704;0.152;2022-10-26T15:13:19;12.70;;;6.00;;
10174;SDS011;18221;38.704;0.152;2022-10-26T15:15:57;12.43;;;6.47;;
10174;SDS011;18221;38.704;0.152;2022-10-26T15:18:43;15.48;;;6.80;;
10174;SDS011;18221;38.704;0.152;2022-10-26T15:21:23;15.60;;;7.30;;
10174;SDS011;18221;38.704;0.152;2022-10-26T15:23:56;11.50;;;6.60;;
10174;SDS011;18221;38.704;0.152;2022-10-26T15:26:26;14.05;;;6.85;;
10174;SDS011;18221;38.704;0.152;2022-10-26T15:28:56;10.38;;;6.18;;
10174;SDS011;18221;38.704;0.152;2022-10-26T15:31:27;17.60;;;7.95;;
10174;SDS011;18221;38.704;0.152;2022-10-26T15:34:13;9.53;;;6.83;;
10174;SDS011;18221;38.704;0.152;2022-10-26T15:36:43;12.60;;;7.13;;
10174;SDS011;18221;38.704;0.152;2022-10-26T15:39:11;14.70;;;7.25;;
10174;SDS011;18221;38.704;0.152;2022-10-26T15:41:43;15.98;;;8.00;;
10174;SDS011;18221;38.704;0.152;2022-10-26T15:44:15;12.63;;;6.80;;
10174;SDS011;18221;38.704;0.152;2022-10-26T15:46:48;15.83;;;9.20;;
10174;SDS011;18221;38.704;0.152;2022-10-26T15:49:18;13.68;;;7.78;;
10174;SDS011;18221;38.704;0.152;2022-10-26T15:51:48;12.33;;;7.63;;
10174;SDS011;18221;38.704;0.152;2022-10-26T15:54:16;11.40;;;7.67;;
10174;SDS011;18221;38.704;0.152;2022-10-26T15:56:44;20.40;;;8.97;;
10174;SDS011;18221;38.704;0.152;2022-10-26T15:59:13;13.20;;;7.80;;
10174;SDS011;18221;38.704;0.152;2022-10-26T16:01:43;17.73;;;8.87;;
10174;SDS011;18221;38.704;0.152;2022-10-26T16:04:11;17.07;;;8.90;;
10174;SDS011;18221;38.704;0.152;2022-10-26T16:06:40;17.03;;;7.83;;